sensor_id;sensor_type;location;lat;lon;timestamp;P1;durP1;ratioP1;P2;durP2;ratioP2
70576;SDS011;58138;43.138;24.702;2022-12-16T00:01:52;435.60;;;84.70;;
70576;SDS011;58138;43.138;24.702;2022-12-16T00:04:17;400.70;;;83.05;;
70576;SDS011;58138;43.138;24.702;2022-12-16T00:06:43;244.18;;;76.82;;
70576;SDS011;58138;43.138;24.702;2022-12-16T00:09:08;758.03;;;108.57;;
70576;SDS011;58138;43.138;24.702;2022-12-16T00:11:34;260.80;;;73.47;;
70576;SDS011;58138;43.138;24.702;2022-12-16T00:13:59;251.95;;;70.88;;
70576;SDS011;58138;43.138;24.702;2022-12-16T00:16:25;264.35;;;63.90;;
70576;SDS011;58138;43.138;24.702;2022-12-16T00:18:51;262.58;;;59.95;;
70576;SDS011;58138;43.138;24.702;2022-12-16T00:21:16;261.10;;;59.42;;
70576;SDS011;58138;43.138;24.702;2022-12-16T00:23:45;466.25;;;70.68;;
70576;SDS011;58138;43.138;24.702;2022-12-16T00:26:10;261.23;;;60.53;;
70576;SDS011;58138;43.138;24.702;2022-12-16T00:28:37;257.50;;;62.30;;
70576;SDS011;58138;43.138;24.702;2022-12-16T00:31:03;400.23;;;70.55;;
70576;SDS011;58138;43.138;24.702;2022-12-16T00:33:29;370.15;;;68.63;;
70576;SDS011;58138;43.138;24.702;2022-12-16T00:35:54;616.08;;;82.00;;
70576;SDS011;58138;43.138;24.702;2022-12-16T00:38:21;227.63;;;63.20;;
70576;SDS011;58138;43.138;24.702;2022-12-16T00:40:48;280.08;;;68.95;;
70576;SDS011;58138;43.138;24.702;2022-12-16T00:43:13;495.45;;;80.32;;
70576;SDS011;58138;43.138;24.702;2022-12-16T00:45:38;238.10;;;68.55;;
70576;SDS011;58138;43.138;24.702;2022-12-16T00:48:05;749.35;;;103.38;;
70576;SDS011;58138;43.138;24.702;2022-12-16T00:50:31;574.40;;;97.60;;
70576;SDS011;58138;43.138;24.702;2022-12-16T00:52:56;310.23;;;75.90;;
70576;SDS011;58138;43.138;24.702;2022-12-16T00:55:22;505.33;;;95.75;;
70576;SDS011;58138;43.138;24.702;2022-12-16T00:57:48;344.90;;;87.80;;
70576;SDS011;58138;43.138;24.702;2022-12-16T01:00:14;831.30;;;109.32;;
70576;SDS011;58138;43.138;24.702;2022-12-16T01:02:44;289.67;;;78.50;;
70576;SDS011;58138;43.138;24.702;2022-12-16T01:05:12;301.38;;;78.45;;
70576;SDS011;58138;43.138;24.702;2022-12-16T01:07:38;272.00;;;76.78;;
70576;SDS011;58138;43.138;24.702;2022-12-16T01:10:04;232.15;;;64.05;;
70576;SDS011;58138;43.138;24.702;2022-12-16T01:12:31;190.82;;;55.42;;
70576;SDS011;58138;43.138;24.702;2022-12-16T01:14:56;176.05;;;52.47;;
70576;SDS011;58138;43.138;24.702;2022-12-16T01:17:22;169.00;;;51.80;;
70576;SDS011;58138;43.138;24.702;2022-12-16T01:19:50;164.85;;;52.90;;
70576;SDS011;58138;43.138;24.702;2022-12-16T01:22:16;380.67;;;59.83;;
70576;SDS011;58138;43.138;24.702;2022-12-16T01:24:42;192.02;;;49.33;;
70576;SDS011;58138;43.138;24.702;2022-12-16T01:27:08;334.08;;;60.42;;
70576;SDS011;58138;43.138;24.702;2022-12-16T01:29:33;173.65;;;48.67;;
70576;SDS011;58138;43.138;24.702;2022-12-16T01:31:59;144.70;;;50.60;;
70576;SDS011;58138;43.138;24.702;2022-12-16T01:34:24;763.83;;;73.03;;
70576;SDS011;58138;43.138;24.702;2022-12-16T01:36:50;207.68;;;50.58;;
70576;SDS011;58138;43.138;24.702;2022-12-16T01:39:15;192.13;;;51.55;;
70576;SDS011;58138;43.138;24.702;2022-12-16T01:41:40;191.85;;;52.55;;
70576;SDS011;58138;43.138;24.702;2022-12-16T01:44:13;194.00;;;50.45;;
70576;SDS011;58138;43.138;24.702;2022-12-16T01:46:40;183.00;;;50.17;;
70576;SDS011;58138;43.138;24.702;2022-12-16T01:49:14;191.35;;;50.20;;
70576;SDS011;58138;43.138;24.702;2022-12-16T01:52:03;159.73;;;46.80;;
70576;SDS011;58138;43.138;24.702;2022-12-16T01:54:31;130.95;;;44.72;;
70576;SDS011;58138;43.138;24.702;2022-12-16T01:57:15;159.75;;;44.55;;
70576;SDS011;58138;43.138;24.702;2022-12-16T01:59:43;134.65;;;42.88;;
70576;SDS011;58138;43.138;24.702;2022-12-16T02:02:10;147.30;;;42.58;;
70576;SDS011;58138;43.138;24.702;2022-12-16T02:04:37;242.85;;;42.50;;
70576;SDS011;58138;43.138;24.702;2022-12-16T02:07:22;177.55;;;42.67;;
70576;SDS011;58138;43.138;24.702;2022-12-16T02:09:49;245.30;;;48.38;;
70576;SDS011;58138;43.138;24.702;2022-12-16T02:14:57;256.50;;;48.35;;
70576;SDS011;58138;43.138;24.702;2022-12-16T02:17:35;184.52;;;46.50;;
70576;SDS011;58138;43.138;24.702;2022-12-16T02:28:28;196.45;;;49.17;;
70576;SDS011;58138;43.138;24.702;2022-12-16T02:34:07;205.38;;;52.22;;
70576;SDS011;58138;43.138;24.702;2022-12-16T02:39:22;346.45;;;59.08;;
70576;SDS011;58138;43.138;24.702;2022-12-16T02:41:56;340.10;;;57.78;;
70576;SDS011;58138;43.138;24.702;2022-12-16T02:44:35;166.38;;;46.85;;
70576;SDS011;58138;43.138;24.702;2022-12-16T02:47:16;130.98;;;43.38;;
70576;SDS011;58138;43.138;24.702;2022-12-16T02:52:14;180.40;;;45.60;;
70576;SDS011;58138;43.138;24.702;2022-12-16T02:54:42;743.88;;;70.40;;
70576;SDS011;58138;43.138;24.702;2022-12-16T03:00:06;236.43;;;50.38;;
70576;SDS011;58138;43.138;24.702;2022-12-16T03:02:35;682.97;;;67.82;;
70576;SDS011;58138;43.138;24.702;2022-12-16T03:07:39;881.95;;;80.20;;
70576;SDS011;58138;43.138;24.702;2022-12-16T03:10:07;348.05;;;58.67;;
70576;SDS011;58138;43.138;24.702;2022-12-16T03:12:35;396.83;;;55.63;;
70576;SDS011;58138;43.138;24.702;2022-12-16T03:15:02;444.95;;;56.78;;
70576;SDS011;58138;43.138;24.702;2022-12-16T03:17:28;209.90;;;49.65;;
70576;SDS011;58138;43.138;24.702;2022-12-16T03:20:04;485.40;;;56.85;;
70576;SDS011;58138;43.138;24.702;2022-12-16T03:22:34;265.85;;;52.67;;
70576;SDS011;58138;43.138;24.702;2022-12-16T03:25:02;289.67;;;50.83;;
70576;SDS011;58138;43.138;24.702;2022-12-16T03:30:16;636.42;;;63.83;;
70576;SDS011;58138;43.138;24.702;2022-12-16T03:32:57;312.15;;;52.25;;
70576;SDS011;58138;43.138;24.702;2022-12-16T03:35:38;239.93;;;54.42;;
70576;SDS011;58138;43.138;24.702;2022-12-16T03:38:09;318.40;;;54.15;;
70576;SDS011;58138;43.138;24.702;2022-12-16T03:40:36;604.75;;;65.25;;
70576;SDS011;58138;43.138;24.702;2022-12-16T03:43:02;261.95;;;49.28;;
70576;SDS011;58138;43.138;24.702;2022-12-16T03:45:34;325.45;;;59.20;;
70576;SDS011;58138;43.138;24.702;2022-12-16T03:48:02;431.38;;;62.63;;
70576;SDS011;58138;43.138;24.702;2022-12-16T03:50:31;376.67;;;52.28;;
70576;SDS011;58138;43.138;24.702;2022-12-16T03:52:57;319.50;;;56.65;;
70576;SDS011;58138;43.138;24.702;2022-12-16T03:55:23;242.82;;;51.75;;
70576;SDS011;58138;43.138;24.702;2022-12-16T03:57:48;225.25;;;49.08;;
70576;SDS011;58138;43.138;24.702;2022-12-16T04:00:14;278.23;;;53.40;;
70576;SDS011;58138;43.138;24.702;2022-12-16T04:02:40;636.65;;;67.88;;
70576;SDS011;58138;43.138;24.702;2022-12-16T04:05:06;556.33;;;62.17;;
70576;SDS011;58138;43.138;24.702;2022-12-16T04:07:31;272.83;;;54.33;;
70576;SDS011;58138;43.138;24.702;2022-12-16T04:09:57;731.97;;;77.32;;
70576;SDS011;58138;43.138;24.702;2022-12-16T04:12:22;174.07;;;52.15;;
70576;SDS011;58138;43.138;24.702;2022-12-16T04:15:07;175.38;;;51.03;;
70576;SDS011;58138;43.138;24.702;2022-12-16T04:17:51;199.27;;;50.55;;
70576;SDS011;58138;43.138;24.702;2022-12-16T04:20:36;252.88;;;57.25;;
70576;SDS011;58138;43.138;24.702;2022-12-16T04:23:22;193.52;;;60.08;;
70576;SDS011;58138;43.138;24.702;2022-12-16T04:26:07;155.43;;;53.75;;
70576;SDS011;58138;43.138;24.702;2022-12-16T04:28:33;228.48;;;60.28;;
70576;SDS011;58138;43.138;24.702;2022-12-16T04:30:58;198.05;;;54.65;;
70576;SDS011;58138;43.138;24.702;2022-12-16T04:33:24;233.32;;;63.08;;
70576;SDS011;58138;43.138;24.702;2022-12-16T04:36:08;202.68;;;58.03;;
70576;SDS011;58138;43.138;24.702;2022-12-16T04:38:52;206.73;;;88.03;;
70576;SDS011;58138;43.138;24.702;2022-12-16T04:41:35;171.02;;;54.85;;
70576;SDS011;58138;43.138;24.702;2022-12-16T04:44:19;140.73;;;57.72;;
70576;SDS011;58138;43.138;24.702;2022-12-16T04:47:03;121.93;;;52.35;;
70576;SDS011;58138;43.138;24.702;2022-12-16T04:49:47;196.18;;;65.47;;
70576;SDS011;58138;43.138;24.702;2022-12-16T04:52:31;132.88;;;56.85;;
70576;SDS011;58138;43.138;24.702;2022-12-16T04:55:15;137.48;;;51.25;;
70576;SDS011;58138;43.138;24.702;2022-12-16T04:58:00;772.50;;;77.15;;
70576;SDS011;58138;43.138;24.702;2022-12-16T05:00:45;183.55;;;54.63;;
70576;SDS011;58138;43.138;24.702;2022-12-16T05:03:30;164.73;;;52.33;;
70576;SDS011;58138;43.138;24.702;2022-12-16T05:06:15;155.63;;;59.33;;
70576;SDS011;58138;43.138;24.702;2022-12-16T05:08:59;163.25;;;59.08;;
70576;SDS011;58138;43.138;24.702;2022-12-16T05:11:44;181.30;;;60.58;;
70576;SDS011;58138;43.138;24.702;2022-12-16T05:14:27;521.55;;;77.07;;
70576;SDS011;58138;43.138;24.702;2022-12-16T05:17:11;292.25;;;64.15;;
70576;SDS011;58138;43.138;24.702;2022-12-16T05:19:55;146.35;;;54.65;;
70576;SDS011;58138;43.138;24.702;2022-12-16T05:22:39;204.30;;;77.03;;
70576;SDS011;58138;43.138;24.702;2022-12-16T05:25:23;247.57;;;55.65;;
70576;SDS011;58138;43.138;24.702;2022-12-16T05:28:07;208.75;;;60.47;;
70576;SDS011;58138;43.138;24.702;2022-12-16T05:30:52;194.70;;;82.30;;
70576;SDS011;58138;43.138;24.702;2022-12-16T05:33:36;227.98;;;51.53;;
70576;SDS011;58138;43.138;24.702;2022-12-16T05:36:20;443.48;;;78.85;;
70576;SDS011;58138;43.138;24.702;2022-12-16T05:39:04;200.02;;;62.80;;
70576;SDS011;58138;43.138;24.702;2022-12-16T05:41:48;292.10;;;73.00;;
70576;SDS011;58138;43.138;24.702;2022-12-16T05:44:33;216.77;;;58.47;;
70576;SDS011;58138;43.138;24.702;2022-12-16T05:47:17;248.85;;;57.88;;
70576;SDS011;58138;43.138;24.702;2022-12-16T05:50:01;168.43;;;54.00;;
70576;SDS011;58138;43.138;24.702;2022-12-16T05:52:48;348.80;;;66.97;;
70576;SDS011;58138;43.138;24.702;2022-12-16T05:55:33;490.27;;;96.78;;
70576;SDS011;58138;43.138;24.702;2022-12-16T05:58:17;166.85;;;59.40;;
70576;SDS011;58138;43.138;24.702;2022-12-16T06:01:02;200.82;;;59.13;;
70576;SDS011;58138;43.138;24.702;2022-12-16T06:03:46;212.52;;;53.72;;
70576;SDS011;58138;43.138;24.702;2022-12-16T06:06:30;260.38;;;57.70;;
70576;SDS011;58138;43.138;24.702;2022-12-16T06:09:14;202.77;;;53.15;;
70576;SDS011;58138;43.138;24.702;2022-12-16T06:11:58;130.43;;;58.53;;
70576;SDS011;58138;43.138;24.702;2022-12-16T06:14:42;137.13;;;51.47;;
70576;SDS011;58138;43.138;24.702;2022-12-16T06:17:26;108.07;;;42.65;;
70576;SDS011;58138;43.138;24.702;2022-12-16T06:20:10;103.82;;;41.20;;
70576;SDS011;58138;43.138;24.702;2022-12-16T06:22:54;97.30;;;41.50;;
70576;SDS011;58138;43.138;24.702;2022-12-16T06:25:39;90.60;;;41.17;;
70576;SDS011;58138;43.138;24.702;2022-12-16T06:28:23;84.38;;;42.17;;
70576;SDS011;58138;43.138;24.702;2022-12-16T06:31:07;79.20;;;38.67;;
70576;SDS011;58138;43.138;24.702;2022-12-16T06:33:51;95.50;;;46.10;;
70576;SDS011;58138;43.138;24.702;2022-12-16T06:36:35;88.00;;;42.75;;
70576;SDS011;58138;43.138;24.702;2022-12-16T06:39:19;82.18;;;40.03;;
70576;SDS011;58138;43.138;24.702;2022-12-16T06:42:03;71.53;;;37.83;;
70576;SDS011;58138;43.138;24.702;2022-12-16T06:44:47;75.70;;;42.25;;
70576;SDS011;58138;43.138;24.702;2022-12-16T06:47:30;62.80;;;34.13;;
70576;SDS011;58138;43.138;24.702;2022-12-16T06:50:14;118.65;;;58.92;;
70576;SDS011;58138;43.138;24.702;2022-12-16T06:52:58;95.00;;;50.45;;
70576;SDS011;58138;43.138;24.702;2022-12-16T06:55:42;92.22;;;49.83;;
70576;SDS011;58138;43.138;24.702;2022-12-16T06:58:27;108.22;;;58.67;;
70576;SDS011;58138;43.138;24.702;2022-12-16T07:01:11;120.35;;;59.63;;
70576;SDS011;58138;43.138;24.702;2022-12-16T07:03:55;120.07;;;61.47;;
70576;SDS011;58138;43.138;24.702;2022-12-16T07:06:39;120.88;;;60.28;;
70576;SDS011;58138;43.138;24.702;2022-12-16T07:09:23;105.57;;;54.22;;
70576;SDS011;58138;43.138;24.702;2022-12-16T07:12:06;100.15;;;53.33;;
70576;SDS011;58138;43.138;24.702;2022-12-16T07:14:51;103.88;;;53.60;;
70576;SDS011;58138;43.138;24.702;2022-12-16T07:17:35;105.03;;;56.35;;
70576;SDS011;58138;43.138;24.702;2022-12-16T07:20:19;91.95;;;49.70;;
70576;SDS011;58138;43.138;24.702;2022-12-16T07:23:03;104.05;;;56.10;;
70576;SDS011;58138;43.138;24.702;2022-12-16T07:25:46;107.43;;;56.03;;
70576;SDS011;58138;43.138;24.702;2022-12-16T07:28:31;92.28;;;52.60;;
70576;SDS011;58138;43.138;24.702;2022-12-16T07:31:15;87.38;;;50.05;;
70576;SDS011;58138;43.138;24.702;2022-12-16T07:33:59;85.05;;;46.70;;
70576;SDS011;58138;43.138;24.702;2022-12-16T07:36:43;77.22;;;44.53;;
70576;SDS011;58138;43.138;24.702;2022-12-16T07:39:27;91.82;;;49.55;;
70576;SDS011;58138;43.138;24.702;2022-12-16T07:42:11;96.63;;;53.67;;
70576;SDS011;58138;43.138;24.702;2022-12-16T07:44:55;89.15;;;52.45;;
70576;SDS011;58138;43.138;24.702;2022-12-16T07:47:49;91.28;;;53.00;;
70576;SDS011;58138;43.138;24.702;2022-12-16T07:50:47;71.40;;;40.35;;
70576;SDS011;58138;43.138;24.702;2022-12-16T07:53:32;66.95;;;40.50;;
70576;SDS011;58138;43.138;24.702;2022-12-16T07:56:16;65.22;;;39.00;;
70576;SDS011;58138;43.138;24.702;2022-12-16T07:59:00;67.30;;;41.20;;
70576;SDS011;58138;43.138;24.702;2022-12-16T08:01:44;82.03;;;49.28;;
70576;SDS011;58138;43.138;24.702;2022-12-16T08:04:28;83.32;;;49.58;;
70576;SDS011;58138;43.138;24.702;2022-12-16T08:07:12;76.45;;;46.80;;
70576;SDS011;58138;43.138;24.702;2022-12-16T08:09:56;79.15;;;46.70;;
70576;SDS011;58138;43.138;24.702;2022-12-16T08:12:41;75.80;;;45.75;;
70576;SDS011;58138;43.138;24.702;2022-12-16T08:15:24;72.38;;;44.42;;
70576;SDS011;58138;43.138;24.702;2022-12-16T08:18:08;61.47;;;40.03;;
70576;SDS011;58138;43.138;24.702;2022-12-16T08:20:52;64.35;;;40.17;;
70576;SDS011;58138;43.138;24.702;2022-12-16T08:23:36;74.55;;;47.00;;
70576;SDS011;58138;43.138;24.702;2022-12-16T08:26:20;67.50;;;44.15;;
70576;SDS011;58138;43.138;24.702;2022-12-16T08:29:05;68.80;;;44.03;;
70576;SDS011;58138;43.138;24.702;2022-12-16T08:31:48;61.95;;;41.15;;
70576;SDS011;58138;43.138;24.702;2022-12-16T08:34:33;76.32;;;50.65;;
70576;SDS011;58138;43.138;24.702;2022-12-16T08:37:16;66.30;;;41.35;;
70576;SDS011;58138;43.138;24.702;2022-12-16T08:40:00;61.42;;;40.15;;
70576;SDS011;58138;43.138;24.702;2022-12-16T08:42:44;56.22;;;37.95;;
70576;SDS011;58138;43.138;24.702;2022-12-16T08:45:28;58.25;;;38.50;;
70576;SDS011;58138;43.138;24.702;2022-12-16T08:48:13;55.47;;;36.83;;
70576;SDS011;58138;43.138;24.702;2022-12-16T08:51:00;58.20;;;37.95;;
70576;SDS011;58138;43.138;24.702;2022-12-16T08:53:46;57.60;;;37.85;;
70576;SDS011;58138;43.138;24.702;2022-12-16T08:56:30;60.90;;;39.83;;
70576;SDS011;58138;43.138;24.702;2022-12-16T08:59:14;59.83;;;40.03;;
70576;SDS011;58138;43.138;24.702;2022-12-16T09:01:58;62.67;;;40.42;;
70576;SDS011;58138;43.138;24.702;2022-12-16T09:04:42;65.55;;;42.72;;
70576;SDS011;58138;43.138;24.702;2022-12-16T09:07:26;47.17;;;27.08;;
70576;SDS011;58138;43.138;24.702;2022-12-16T09:10:10;52.22;;;34.00;;
70576;SDS011;58138;43.138;24.702;2022-12-16T09:13:03;52.80;;;35.33;;
70576;SDS011;58138;43.138;24.702;2022-12-16T09:15:48;49.38;;;33.55;;
70576;SDS011;58138;43.138;24.702;2022-12-16T09:18:32;49.65;;;32.85;;
70576;SDS011;58138;43.138;24.702;2022-12-16T09:21:15;49.33;;;31.92;;
70576;SDS011;58138;43.138;24.702;2022-12-16T09:23:59;48.58;;;33.45;;
70576;SDS011;58138;43.138;24.702;2022-12-16T09:26:43;46.15;;;32.92;;
70576;SDS011;58138;43.138;24.702;2022-12-16T09:29:27;51.42;;;35.38;;
70576;SDS011;58138;43.138;24.702;2022-12-16T09:32:11;51.67;;;33.45;;
70576;SDS011;58138;43.138;24.702;2022-12-16T09:34:55;45.17;;;30.70;;
70576;SDS011;58138;43.138;24.702;2022-12-16T09:37:44;51.00;;;33.53;;
70576;SDS011;58138;43.138;24.702;2022-12-16T09:40:29;44.10;;;30.85;;
70576;SDS011;58138;43.138;24.702;2022-12-16T09:43:38;40.03;;;29.20;;
70576;SDS011;58138;43.138;24.702;2022-12-16T09:46:42;36.97;;;26.85;;
70576;SDS011;58138;43.138;24.702;2022-12-16T09:49:48;41.60;;;28.52;;
70576;SDS011;58138;43.138;24.702;2022-12-16T09:52:40;38.22;;;27.08;;
70576;SDS011;58138;43.138;24.702;2022-12-16T09:55:37;32.58;;;25.85;;
70576;SDS011;58138;43.138;24.702;2022-12-16T09:58:24;31.60;;;23.88;;
70576;SDS011;58138;43.138;24.702;2022-12-16T10:01:10;29.58;;;22.52;;
70576;SDS011;58138;43.138;24.702;2022-12-16T10:03:54;29.45;;;20.25;;
70576;SDS011;58138;43.138;24.702;2022-12-16T10:06:48;26.98;;;21.20;;
70576;SDS011;58138;43.138;24.702;2022-12-16T10:12:58;28.20;;;20.85;;
70576;SDS011;58138;43.138;24.702;2022-12-16T10:31:02;24.50;;;19.70;;
70576;SDS011;58138;43.138;24.702;2022-12-16T10:33:48;27.20;;;21.58;;
70576;SDS011;58138;43.138;24.702;2022-12-16T10:36:32;22.20;;;17.95;;
70576;SDS011;58138;43.138;24.702;2022-12-16T10:45:24;24.70;;;18.27;;
70576;SDS011;58138;43.138;24.702;2022-12-16T10:48:11;28.55;;;20.10;;
70576;SDS011;58138;43.138;24.702;2022-12-16T10:50:57;23.67;;;18.05;;
70576;SDS011;58138;43.138;24.702;2022-12-16T10:53:42;24.05;;;18.45;;
70576;SDS011;58138;43.138;24.702;2022-12-16T10:56:46;20.27;;;16.25;;
70576;SDS011;58138;43.138;24.702;2022-12-16T10:59:34;20.52;;;16.15;;
70576;SDS011;58138;43.138;24.702;2022-12-16T11:02:21;26.80;;;19.95;;
70576;SDS011;58138;43.138;24.702;2022-12-16T11:05:21;23.75;;;18.15;;
70576;SDS011;58138;43.138;24.702;2022-12-16T11:08:17;24.48;;;17.33;;
70576;SDS011;58138;43.138;24.702;2022-12-16T11:17:34;20.67;;;14.68;;
70576;SDS011;58138;43.138;24.702;2022-12-16T11:26:10;24.35;;;17.77;;
70576;SDS011;58138;43.138;24.702;2022-12-16T11:32:17;31.70;;;21.25;;
70576;SDS011;58138;43.138;24.702;2022-12-16T11:35:03;25.20;;;16.52;;
70576;SDS011;58138;43.138;24.702;2022-12-16T11:38:00;25.00;;;16.23;;
70576;SDS011;58138;43.138;24.702;2022-12-16T11:40:45;20.95;;;14.98;;
70576;SDS011;58138;43.138;24.702;2022-12-16T11:43:30;20.33;;;14.32;;
70576;SDS011;58138;43.138;24.702;2022-12-16T11:46:25;20.23;;;16.45;;
70576;SDS011;58138;43.138;24.702;2022-12-16T11:49:18;24.17;;;17.30;;
70576;SDS011;58138;43.138;24.702;2022-12-16T11:52:07;21.30;;;16.02;;
70576;SDS011;58138;43.138;24.702;2022-12-16T11:57:46;29.73;;;20.42;;
70576;SDS011;58138;43.138;24.702;2022-12-16T12:00:35;28.50;;;20.15;;
70576;SDS011;58138;43.138;24.702;2022-12-16T12:03:28;26.02;;;20.27;;
70576;SDS011;58138;43.138;24.702;2022-12-16T12:06:24;24.75;;;17.98;;
70576;SDS011;58138;43.138;24.702;2022-12-16T12:09:19;28.13;;;17.58;;
70576;SDS011;58138;43.138;24.702;2022-12-16T12:20:49;19.70;;;15.68;;
70576;SDS011;58138;43.138;24.702;2022-12-16T12:26:48;18.75;;;13.95;;
70576;SDS011;58138;43.138;24.702;2022-12-16T12:33:14;18.33;;;15.20;;
70576;SDS011;58138;43.138;24.702;2022-12-16T12:42:03;20.95;;;14.65;;
70576;SDS011;58138;43.138;24.702;2022-12-16T12:54:51;20.00;;;12.07;;
70576;SDS011;58138;43.138;24.702;2022-12-16T12:57:38;15.02;;;12.48;;
70576;SDS011;58138;43.138;24.702;2022-12-16T13:00:23;14.13;;;12.45;;
70576;SDS011;58138;43.138;24.702;2022-12-16T13:05:58;16.13;;;13.88;;
70576;SDS011;58138;43.138;24.702;2022-12-16T13:11:32;17.60;;;14.13;;
70576;SDS011;58138;43.138;24.702;2022-12-16T13:17:13;22.67;;;15.68;;
70576;SDS011;58138;43.138;24.702;2022-12-16T13:19:58;22.50;;;15.52;;
70576;SDS011;58138;43.138;24.702;2022-12-16T13:22:43;21.42;;;16.17;;
70576;SDS011;58138;43.138;24.702;2022-12-16T13:25:32;25.50;;;18.25;;
70576;SDS011;58138;43.138;24.702;2022-12-16T13:28:27;26.92;;;19.08;;
70576;SDS011;58138;43.138;24.702;2022-12-16T13:31:14;27.30;;;20.05;;
70576;SDS011;58138;43.138;24.702;2022-12-16T13:34:01;21.13;;;17.90;;
70576;SDS011;58138;43.138;24.702;2022-12-16T13:36:52;60.20;;;39.22;;
70576;SDS011;58138;43.138;24.702;2022-12-16T13:39:38;35.20;;;24.35;;
70576;SDS011;58138;43.138;24.702;2022-12-16T13:42:30;25.27;;;19.15;;
70576;SDS011;58138;43.138;24.702;2022-12-16T13:45:15;23.63;;;17.73;;
70576;SDS011;58138;43.138;24.702;2022-12-16T13:48:30;25.17;;;17.60;;
70576;SDS011;58138;43.138;24.702;2022-12-16T13:54:40;22.27;;;16.50;;
70576;SDS011;58138;43.138;24.702;2022-12-16T13:57:27;21.15;;;15.63;;
70576;SDS011;58138;43.138;24.702;2022-12-16T14:00:23;28.80;;;18.70;;
70576;SDS011;58138;43.138;24.702;2022-12-16T14:03:10;33.50;;;22.33;;
70576;SDS011;58138;43.138;24.702;2022-12-16T14:05:57;31.23;;;17.63;;
70576;SDS011;58138;43.138;24.702;2022-12-16T14:08:41;26.52;;;17.77;;
70576;SDS011;58138;43.138;24.702;2022-12-16T14:14:31;32.83;;;22.88;;
70576;SDS011;58138;43.138;24.702;2022-12-16T14:17:20;36.83;;;23.60;;
70576;SDS011;58138;43.138;24.702;2022-12-16T14:25:56;31.67;;;22.23;;
70576;SDS011;58138;43.138;24.702;2022-12-16T14:28:41;31.55;;;21.60;;
70576;SDS011;58138;43.138;24.702;2022-12-16T14:31:29;31.42;;;21.30;;
70576;SDS011;58138;43.138;24.702;2022-12-16T14:34:25;32.20;;;23.38;;
70576;SDS011;58138;43.138;24.702;2022-12-16T14:37:33;34.75;;;21.60;;
70576;SDS011;58138;43.138;24.702;2022-12-16T14:40:30;36.53;;;23.63;;
70576;SDS011;58138;43.138;24.702;2022-12-16T14:43:17;36.30;;;24.67;;
70576;SDS011;58138;43.138;24.702;2022-12-16T14:46:15;42.22;;;29.02;;
70576;SDS011;58138;43.138;24.702;2022-12-16T14:49:22;35.42;;;24.20;;
70576;SDS011;58138;43.138;24.702;2022-12-16T14:52:21;39.63;;;25.85;;
70576;SDS011;58138;43.138;24.702;2022-12-16T14:55:47;46.67;;;30.20;;
70576;SDS011;58138;43.138;24.702;2022-12-16T15:01:11;38.67;;;26.65;;
70576;SDS011;58138;43.138;24.702;2022-12-16T15:03:58;48.03;;;28.23;;
70576;SDS011;58138;43.138;24.702;2022-12-16T15:06:45;68.13;;;37.65;;
70576;SDS011;58138;43.138;24.702;2022-12-16T15:09:31;44.10;;;26.15;;
70576;SDS011;58138;43.138;24.702;2022-12-16T15:12:18;33.83;;;24.35;;
70576;SDS011;58138;43.138;24.702;2022-12-16T15:15:04;36.42;;;26.27;;
70576;SDS011;58138;43.138;24.702;2022-12-16T15:17:54;34.72;;;25.45;;
70576;SDS011;58138;43.138;24.702;2022-12-16T15:20:49;41.80;;;30.75;;
70576;SDS011;58138;43.138;24.702;2022-12-16T15:23:37;39.10;;;28.05;;
70576;SDS011;58138;43.138;24.702;2022-12-16T15:26:26;40.88;;;28.73;;
70576;SDS011;58138;43.138;24.702;2022-12-16T15:37:54;45.47;;;31.48;;
70576;SDS011;58138;43.138;24.702;2022-12-16T15:40:39;45.10;;;33.47;;
70576;SDS011;58138;43.138;24.702;2022-12-16T15:55:24;63.95;;;41.60;;
70576;SDS011;58138;43.138;24.702;2022-12-16T15:58:26;50.88;;;34.67;;
70576;SDS011;58138;43.138;24.702;2022-12-16T16:01:19;45.72;;;31.02;;
70576;SDS011;58138;43.138;24.702;2022-12-16T16:04:14;46.00;;;30.45;;
70576;SDS011;58138;43.138;24.702;2022-12-16T16:07:02;48.25;;;29.92;;
70576;SDS011;58138;43.138;24.702;2022-12-16T16:09:46;42.05;;;28.42;;
70576;SDS011;58138;43.138;24.702;2022-12-16T16:12:30;51.90;;;34.08;;
70576;SDS011;58138;43.138;24.702;2022-12-16T16:15:13;55.70;;;39.33;;
70576;SDS011;58138;43.138;24.702;2022-12-16T16:17:59;77.78;;;45.85;;
70576;SDS011;58138;43.138;24.702;2022-12-16T16:20:45;55.28;;;36.17;;
70576;SDS011;58138;43.138;24.702;2022-12-16T16:23:29;65.03;;;44.60;;
70576;SDS011;58138;43.138;24.702;2022-12-16T16:26:14;67.88;;;48.60;;
70576;SDS011;58138;43.138;24.702;2022-12-16T16:28:59;81.80;;;59.97;;
70576;SDS011;58138;43.138;24.702;2022-12-16T16:31:43;79.93;;;52.67;;
70576;SDS011;58138;43.138;24.702;2022-12-16T16:34:27;58.90;;;43.28;;
70576;SDS011;58138;43.138;24.702;2022-12-16T16:37:15;74.25;;;50.53;;
70576;SDS011;58138;43.138;24.702;2022-12-16T16:40:00;73.40;;;50.42;;
70576;SDS011;58138;43.138;24.702;2022-12-16T16:42:44;71.80;;;49.60;;
70576;SDS011;58138;43.138;24.702;2022-12-16T16:45:28;61.55;;;41.72;;
70576;SDS011;58138;43.138;24.702;2022-12-16T16:48:13;58.55;;;38.85;;
70576;SDS011;58138;43.138;24.702;2022-12-16T16:50:59;64.45;;;46.17;;
70576;SDS011;58138;43.138;24.702;2022-12-16T16:53:44;82.35;;;53.53;;
70576;SDS011;58138;43.138;24.702;2022-12-16T16:56:33;88.75;;;57.83;;
70576;SDS011;58138;43.138;24.702;2022-12-16T16:59:17;74.70;;;50.55;;
70576;SDS011;58138;43.138;24.702;2022-12-16T17:02:08;80.68;;;51.88;;
70576;SDS011;58138;43.138;24.702;2022-12-16T17:05:00;65.22;;;44.78;;
70576;SDS011;58138;43.138;24.702;2022-12-16T17:07:44;45.35;;;32.13;;
70576;SDS011;58138;43.138;24.702;2022-12-16T17:10:28;47.92;;;32.75;;
70576;SDS011;58138;43.138;24.702;2022-12-16T17:13:12;56.75;;;36.28;;
70576;SDS011;58138;43.138;24.702;2022-12-16T17:15:56;88.93;;;56.05;;
70576;SDS011;58138;43.138;24.702;2022-12-16T17:18:40;79.07;;;51.28;;
70576;SDS011;58138;43.138;24.702;2022-12-16T17:21:24;87.03;;;50.78;;
70576;SDS011;58138;43.138;24.702;2022-12-16T17:24:08;74.05;;;49.42;;
70576;SDS011;58138;43.138;24.702;2022-12-16T17:26:51;73.65;;;47.15;;
70576;SDS011;58138;43.138;24.702;2022-12-16T17:29:35;85.93;;;53.65;;
70576;SDS011;58138;43.138;24.702;2022-12-16T17:32:19;76.40;;;48.08;;
70576;SDS011;58138;43.138;24.702;2022-12-16T17:35:03;81.32;;;52.70;;
70576;SDS011;58138;43.138;24.702;2022-12-16T17:37:48;73.80;;;48.25;;
70576;SDS011;58138;43.138;24.702;2022-12-16T17:40:32;85.63;;;50.55;;
70576;SDS011;58138;43.138;24.702;2022-12-16T17:43:16;75.55;;;49.15;;
70576;SDS011;58138;43.138;24.702;2022-12-16T17:46:06;66.68;;;45.70;;
70576;SDS011;58138;43.138;24.702;2022-12-16T17:48:53;60.45;;;38.75;;
70576;SDS011;58138;43.138;24.702;2022-12-16T17:51:38;72.75;;;49.72;;
70576;SDS011;58138;43.138;24.702;2022-12-16T17:54:22;73.03;;;46.50;;